Shadle Garland, Washington
Current Conditions -  °F | °C
As of 6:53 PM on Saturday 20 Dec 2014 (Local Time) from KSFF Reporting Station
Light Rain Light Rain  
Wind Chill: 38°   Ceiling: 2900
Heat Index: 42°   Visibility: 7mi
Dew Point: 38°   Wind: 7mph
Humidity: 85%   Direction: 120°ESE
Pressure: 29.62"   Gusts: 18mph
Location:  47.6588°N, 117.425°W
Report Text: KSFF 210253Z 12006G16KT 7SM -RA SCT024 OVC029 06/03 A2962 RMK AO2 RAE23B47 SLP039 P0001 60009 T00560033 58023
Loading
Personal Weather Stations






























Interactive Weather Map New forecast layout! Learn more

10-Day Weather Forecast

Advertisements
Track Severe Weather on mobile